Pagrindinis puslapis
METAR-TAF:

METAR-TAF

Oro uostai :

Londono Hitrou oro uostas

Londonas Heathrow, Anglija

platuma: 51-29N, ilguma: 000-27W, Aukštis: 24 m

Dabartinis oras

Ataskaita buvo paskelbta 36 minutes, ne 15:20 UTC
Vėjas 14 kt iš Rytų
Temperatūra 21°C
Drėgmė 38%
Slėgis 1023 hPa
Matomumas 10 km arba daugiau

METAR: EGLL 201520Z AUTO 09014KT 9999 NCD 21/06 Q1023

Laikas: 16:56 (15:56 UTC)

Prognozė

Ataskaita buvo paskelbta 5 valandos ir 2 minutes, ne 10:54 UTC
Prognozė galioja nuo 20 metu 12 UTC su 21 metu 18 UTC
Vėjas 12 kt iš Rytų/Pietryčių
Matomumas 10 km arba daugiau
nėra debesų žemiau 1500 m ir nėra kamuolinių lietaus debesų

TAF: EGLL 201054Z 2012/2118 11012KT CAVOK

Orai ataskaitas ir orų prognozės (METAR, TAF).

turimą stotys yra geltonos ir raudonos taškus žemėlapyje.

Perkelti pele per norėdami pamatyti stoties vardą.

Tada spustelėkite, norėdami matyti oro stebėjimo ir prognozės.

Norėdami pakeisti žemėlapį: spustelėkite ant žalios mygtukų su juodo kryžiaus žemyn,; žalią mygtuką su brūkšneliu, jei norite nutolinti; arba žalių rodyklių gretimoms žemėlapius.


METAR-TAF: